LiveATC.Net - Listen to live air traffic control over the Internet! Contact for advertising information

ICAO: KTTD  IATA: TTD   Airport: Portland-Troutdale Airport
City: Portland   State/Province: Oregon
Country: United States   Continent: North America
KTTD METAR Weather: KTTD 062353Z VRB05KT 10SM CLR 24/09 A3002 RMK AO2 SLP167 T02440089 10256 20172 56006
KTTD Flight Activity (FlightAware)
KTTD Airport Info   (AirNav) (iFlightPlanner)
KTTD VFR Sectional Chart   (iFlightPlanner) 
KTTD IFR Low Chart   (iFlightPlanner) 
KTTD Tower
Feed Status: UP   Listeners: 2
Listen right in your browser - requires Flash (in browser, requires Flash)
Click here to listen with your own player (launches your MP3 player)
KTTD Tower Audio Archives
Troutdale Tower120.900


Unauthorized use prohibited. See Terms of Service

Find LiveATC Audio Streams

Airport/ARTCC Code

(e.g., 124.400, 128.75)
Site-wide search

Browse LiveATC Feeds
LiveATC Coverage Map
Top 50 LiveATC Feeds
Bad Weather Areas

Offer a LiveATC Feed
Press Inquiries

LiveATC on iPhone
LiveATC on Android

LiveATC Mobile
(Mobile browser)

ATC Audio Archives
Interesting Recordings

LiveATC Forums

Home Page
Make a Donation
LiveATC Bookstore

Terms of Use
Privacy Policy

ATC/Radar Sites
U.S. ARTCC Freqs
Canadian Air Freqs


FAA Airport Status
Nat'l Airspace Status
Arrival Demand Charts

Server Software By:

Please make a donation to help us keep growing!